Time;durP1;ratioP1;P1;durP2;ratioP2;P2;SDS_P1;SDS_P2;PMS_P1;PMS_P2;Temp;Humidity;BMP_temperature;BMP_pressure;BME280_temperature;BME280_humidity;BME280_pressure;Samples;Min_cycle;Max_cycle;Signal;HPM_P1;HPM_P2
2022/11/16 00:01:20;;;;;;;55.70;32.05;;;;;;;2.69;78.18;94588.47;5110348;28;20032;-71
2022/11/16 00:03:45;;;;;;;65.03;37.15;;;;;;;2.74;78.26;94583.91;5109065;28;20031;-70
2022/11/16 00:06:11;;;;;;;63.30;34.40;;;;;;;2.88;78.68;94576.25;5092380;28;20421;-71
2022/11/16 00:08:40;;;;;;;55.60;31.42;;;;;;;2.97;78.91;94577.47;5092609;28;20031;-71
2022/11/16 00:11:08;;;;;;;56.35;32.13;;;;;;;2.94;78.94;94577.66;5093051;28;20456;-71
2022/11/16 00:13:34;;;;;;;54.60;30.23;;;;;;;2.99;79.17;94555.13;5111195;28;20027;-71
2022/11/16 00:16:00;;;;;;;60.55;31.38;;;;;;;3.17;78.85;94566.06;5110135;28;20097;-71
2022/11/16 00:18:25;;;;;;;52.75;29.30;;;;;;;3.12;78.82;94563.78;5109847;28;20481;-71
2022/11/16 00:20:51;;;;;;;54.53;30.52;;;;;;;2.87;79.71;94566.06;5110027;28;20035;-70
2022/11/16 00:23:16;;;;;;;54.83;30.23;;;;;;;3.01;79.29;94568.72;5109970;28;20451;-71
2022/11/16 00:25:42;;;;;;;56.03;31.02;;;;;;;3.10;79.02;94570.75;5111167;28;20031;-70
2022/11/16 00:28:07;;;;;;;59.53;33.05;;;;;;;3.04;79.08;94563.41;5094867;28;20020;-70
2022/11/16 00:30:33;;;;;;;67.28;38.95;;;;;;;3.23;78.92;94567.44;5097059;28;20374;-70
2022/11/16 00:33:02;;;;;;;63.53;36.05;;;;;;;3.14;78.81;94550.84;5115257;28;20038;-71
2022/11/16 00:35:27;;;;;;;60.17;34.92;;;;;;;3.33;78.56;94553.16;5080229;28;20039;-71
2022/11/16 00:37:53;;;;;;;74.45;41.58;;;;;;;3.31;78.36;94553.25;5114241;28;20421;-70
2022/11/16 00:40:18;;;;;;;143.48;66.97;;;;;;;3.35;78.50;94561.63;5114005;28;20020;-71
2022/11/16 00:42:44;;;;;;;102.60;55.70;;;;;;;3.39;77.99;94563.06;5113971;28;20024;-70
2022/11/16 00:45:09;;;;;;;92.10;51.67;;;;;;;3.36;77.75;94545.28;5113802;28;20084;-71
2022/11/16 00:47:35;;;;;;;96.00;52.97;;;;;;;3.39;77.03;94537.41;5112433;28;20103;-70
2022/11/16 00:50:00;;;;;;;104.78;56.90;;;;;;;3.26;77.50;94531.31;5094851;28;20024;-70
2022/11/16 00:52:26;;;;;;;100.65;52.75;;;;;;;3.25;77.14;94534.81;5093549;28;20036;-71
2022/11/16 00:54:51;;;;;;;96.75;51.40;;;;;;;3.28;76.97;94544.91;5094717;28;20043;-71
2022/11/16 00:57:17;;;;;;;106.32;55.45;;;;;;;3.20;76.98;94541.97;5094966;28;20032;-70
2022/11/16 00:59:42;;;;;;;103.45;52.38;;;;;;;2.96;77.26;94510.84;5076518;28;20032;-70
2022/11/16 01:02:08;;;;;;;97.25;52.15;;;;;;;3.26;76.49;94533.91;5094811;28;20093;-70
2022/11/16 01:04:33;;;;;;;97.55;51.53;;;;;;;3.32;76.16;94525.84;5094289;28;20035;-70
2022/11/16 01:06:58;;;;;;;109.57;53.08;;;;;;;3.06;76.69;94520.47;5093284;28;20039;-70
2022/11/16 01:09:24;;;;;;;94.13;51.00;;;;;;;3.17;76.08;94519.03;5092927;28;20085;-70
2022/11/16 01:12:07;;;;;;;100.75;50.90;;;;;;;3.09;75.76;94515.19;5092676;28;20071;-71
2022/11/16 01:14:34;;;;;;;91.57;48.13;;;;;;;3.00;76.40;94514.88;5093077;28;20495;-71
2022/11/16 01:16:59;;;;;;;79.40;45.50;;;;;;;2.95;75.81;94509.19;5094509;28;20043;-70
2022/11/16 01:19:25;;;;;;;57.33;32.75;;;;;;;2.56;76.09;94501.09;5092830;28;20137;-70
2022/11/16 01:21:50;;;;;;;48.25;28.40;;;;;;;2.39;78.13;94499.50;5092926;28;20093;-70
2022/11/16 01:24:16;;;;;;;46.85;27.95;;;;;;;2.45;77.60;94501.75;5092704;28;20028;-71
2022/11/16 01:26:41;;;;;;;43.58;25.30;;;;;;;2.52;76.53;94499.66;5092890;28;20032;-70
2022/11/16 01:29:06;;;;;;;51.10;29.98;;;;;;;2.57;76.20;94487.41;5092681;28;20077;-70
2022/11/16 01:31:32;;;;;;;45.90;26.38;;;;;;;2.58;76.62;94494.16;5094043;28;20054;-70
2022/11/16 01:33:57;;;;;;;50.05;30.42;;;;;;;2.33;76.06;94463.13;5092585;28;20039;-70
2022/11/16 01:36:23;;;;;;;86.50;45.53;;;;;;;2.64;76.31;94503.25;5093718;28;20582;-70
2022/11/16 01:38:49;;;;;;;93.50;45.80;;;;;;;2.74;76.02;94508.69;5092136;28;20062;-71
2022/11/16 01:41:17;;;;;;;76.07;39.75;;;;;;;2.50;77.19;94505.78;5093570;28;20024;-70
2022/11/16 01:43:59;;;;;;;85.00;41.75;;;;;;;2.42;77.46;94496.78;5075863;28;20032;-71
2022/11/16 01:46:25;;;;;;;83.88;40.40;;;;;;;2.62;77.09;94502.53;5093872;28;20040;-71
2022/11/16 01:48:59;;;;;;;81.60;39.53;;;;;;;2.65;76.87;94494.66;5092240;28;20106;-70
2022/11/16 01:51:25;;;;;;;80.30;37.75;;;;;;;2.55;77.40;94504.59;5076673;28;20040;-71
2022/11/16 01:53:51;;;;;;;80.45;39.35;;;;;;;2.46;77.62;94502.56;5075270;28;20131;-70
2022/11/16 01:56:16;;;;;;;87.18;41.90;;;;;;;2.35;77.84;94502.34;5058623;28;20486;-70
2022/11/16 01:58:41;;;;;;;102.95;43.30;;;;;;;2.17;78.17;94504.16;5075199;28;20478;-70
2022/11/16 02:01:07;;;;;;;83.97;39.88;;;;;;;2.29;78.31;94492.44;5058398;28;20418;-70
2022/11/16 02:03:35;;;;;;;85.72;40.45;;;;;;;2.35;77.97;94497.19;5093125;28;20031;-70
2022/11/16 02:06:03;;;;;;;78.30;39.70;;;;;;;2.49;78.23;94494.69;5075524;28;20127;-70
2022/11/16 02:11:41;;;;;;;71.32;38.72;;;;;;;2.55;77.24;94481.50;5091777;28;20063;-71
2022/11/16 02:14:33;;;;;;;71.75;38.35;;;;;;;2.62;76.98;94472.56;5093027;28;20028;-70
2022/11/16 02:17:24;;;;;;;77.40;38.83;;;;;;;2.49;77.44;94484.44;5092209;28;20441;-70
2022/11/16 02:19:50;;;;;;;;;;;;;;;2.27;77.53;94476.28;5093383;28;20035;-71
2022/11/16 02:22:26;;;;;;;90.57;42.70;;;;;;;2.20;78.04;94473.22;5093334;28;19920;-70
2022/11/16 02:24:55;;;;;;;78.55;38.10;;;;;;;2.15;78.13;94470.94;5091504;28;20031;-71
2022/11/16 02:28:28;;;;;;;82.18;39.22;;;;;;;2.21;78.20;94459.53;5091797;28;20032;-70
2022/11/16 02:30:54;;;;;;;83.38;39.30;;;;;;;2.02;79.07;94464.84;5001433;28;20148;-70
2022/11/16 02:33:21;;;;;;;84.03;41.08;;;;;;;2.22;78.36;94473.97;5074495;28;20115;-70
2022/11/16 02:35:49;;;;;;;90.93;40.60;;;;;;;1.96;79.35;94450.63;5057168;28;20550;-70
2022/11/16 02:38:28;;;;;;;106.63;45.03;;;;;;;2.19;79.34;94462.16;5111750;28;20565;-70
2022/11/16 02:41:16;;;;;;;90.78;41.35;;;;;;;2.23;78.93;94463.66;5092822;28;20038;-70
2022/11/16 02:43:43;;;;;;;95.97;40.50;;;;;;;2.45;78.84;94458.16;5094324;28;20126;-70
2022/11/16 02:46:12;;;;;;;89.55;41.80;;;;;;;2.64;78.45;94455.34;5094086;27;20131;-70
2022/11/16 02:48:41;;;;;;;87.32;40.08;;;;;;;2.57;78.57;94461.75;5112932;27;20027;-70
2022/11/16 02:51:06;;;;;;;89.28;41.20;;;;;;;2.61;78.80;94452.94;5101942;28;20035;-70
2022/11/16 02:53:36;;;;;;;100.32;44.78;;;;;;;2.49;79.34;94453.66;5109257;28;20057;-70
2022/11/16 02:56:01;;;;;;;90.93;41.85;;;;;;;2.62;79.00;94459.75;5092982;28;20075;-70
2022/11/16 02:58:27;;;;;;;97.28;42.58;;;;;;;2.71;78.76;94466.09;5105360;28;20055;-71
2022/11/16 03:00:54;;;;;;;90.60;43.25;;;;;;;2.74;78.63;94463.34;5089300;28;20036;-70
2022/11/16 03:03:42;;;;;;;90.18;41.25;;;;;;;2.83;79.21;94456.84;5101921;27;20047;-70
2022/11/16 03:06:13;;;;;;;92.78;41.17;;;;;;;2.76;79.19;94446.13;5088557;28;20036;-70
2022/11/16 03:08:45;;;;;;;91.15;41.38;;;;;;;2.93;78.17;94459.72;5089433;28;20038;-70
2022/11/16 03:13:56;;;;;;;72.38;39.67;;;;;;;2.78;78.82;94439.16;5098449;27;20469;-70
2022/11/16 03:16:31;;;;;;;79.28;40.58;;;;;;;2.97;78.94;94444.03;5084500;28;20040;-70
2022/11/16 03:18:57;;;;;;;76.57;38.78;;;;;;;3.00;78.95;94441.28;5102845;28;20293;-70
2022/11/16 03:21:46;;;;;;;81.38;40.90;;;;;;;3.00;78.70;94438.72;5106590;28;20046;-71
2022/11/16 03:24:11;;;;;;;72.35;37.67;;;;;;;2.94;79.16;94426.25;5106462;28;20024;-70
2022/11/16 03:26:43;;;;;;;78.63;39.72;;;;;;;3.05;79.01;94426.44;5089504;28;20067;-70
2022/11/16 03:29:40;;;;;;;68.13;38.00;;;;;;;3.00;79.14;94422.50;5106690;27;20057;-70
2022/11/16 03:32:13;;;;;;;76.05;37.92;;;;;;;2.79;79.77;94424.59;5067857;28;20202;-71
2022/11/16 03:34:39;;;;;;;69.03;35.75;;;;;;;2.72;80.79;94436.94;5106471;27;20416;-71
2022/11/16 03:37:04;;;;;;;61.65;34.97;;;;;;;2.85;80.25;94434.50;5088401;28;20044;-70
2022/11/16 03:39:32;;;;;;;85.47;39.67;;;;;;;2.55;81.10;94430.22;5071480;28;20039;-70
2022/11/16 03:41:58;;;;;;;75.40;37.80;;;;;;;2.34;81.88;94436.56;5088294;28;20533;-70
2022/11/16 03:44:24;;;;;;;70.25;34.28;;;;;;;2.44;81.85;94424.88;5089902;28;20028;-70
2022/11/16 03:46:49;;;;;;;89.40;36.53;;;;;;;2.33;81.87;94429.81;5088556;28;20040;-71
2022/11/16 03:49:14;;;;;;;78.70;37.60;;;;;;;2.29;82.02;94438.59;5070026;28;20031;-70
2022/11/16 03:51:40;;;;;;;78.82;36.88;;;;;;;2.04;82.29;94442.53;5106711;28;20035;-70
2022/11/16 03:54:06;;;;;;;72.38;36.88;;;;;;;2.16;82.55;94438.44;5106421;27;20039;-70
2022/11/16 03:56:31;;;;;;;83.82;35.28;;;;;;;1.86;83.31;94428.97;5107641;28;20132;-69
2022/11/16 03:58:56;;;;;;;70.75;32.15;;;;;;;1.86;83.69;94426.41;5104463;28;20027;-69
2022/11/16 04:01:22;;;;;;;50.75;29.27;;;;;;;2.03;83.72;94424.66;5105978;28;20046;-69
2022/11/16 04:03:47;;;;;;;60.33;30.38;;;;;;;2.22;83.44;94441.47;5105755;28;20039;-70
2022/11/16 04:25:50;;;;;;;66.43;38.30;;;;;;;2.60;82.43;94402.59;5102979;28;20096;-70
2022/11/16 04:28:16;;;;;;;73.22;39.47;;;;;;;2.34;82.35;94393.00;5086199;28;20468;-69
2022/11/16 04:39:00;;;;;;;64.65;33.50;;;;;;;1.50;84.42;94401.06;5105611;28;20031;-69
2022/11/16 04:44:10;;;;;;;75.38;41.50;;;;;;;1.60;84.65;94393.72;5107355;28;20035;-69
2022/11/16 04:49:20;;;;;;;55.63;30.30;;;;;;;1.77;84.73;94401.31;5105137;28;20035;-70
2022/11/16 04:51:45;;;;;;;51.05;28.83;;;;;;;1.81;84.74;94384.84;5106604;28;20409;-69
2022/11/16 04:54:11;;;;;;;60.42;30.85;;;;;;;1.81;84.54;94395.09;5107528;28;20405;-69
2022/11/16 04:56:36;;;;;;;67.30;37.17;;;;;;;1.91;84.23;94398.00;5071351;28;20505;-70
2022/11/16 04:59:01;;;;;;;57.45;31.15;;;;;;;1.82;83.99;94385.69;5087496;28;20042;-69
2022/11/16 05:04:11;;;;;;;56.78;31.13;;;;;;;1.80;83.16;94352.47;5108279;28;20470;-69
2022/11/16 05:06:36;;;;;;;50.25;28.85;;;;;;;2.07;83.17;94385.97;5103780;28;20043;-70
2022/11/16 05:09:02;;;;;;;57.00;30.23;;;;;;;2.13;83.03;94383.06;5105784;28;20020;-70
2022/11/16 05:11:27;;;;;;;55.70;30.42;;;;;;;2.24;82.82;94382.44;5106572;28;20432;-69
2022/11/16 05:13:53;;;;;;;61.35;33.28;;;;;;;2.29;82.86;94392.44;5107559;27;20036;-69
2022/11/16 05:16:18;;;;;;;76.13;34.70;;;;;;;2.11;82.96;94386.63;5107880;28;20032;-69
2022/11/16 05:18:43;;;;;;;60.00;31.25;;;;;;;1.91;83.65;94390.31;5112657;28;20035;-69
2022/11/16 05:21:09;;;;;;;59.83;30.85;;;;;;;2.12;82.67;94391.66;5108310;28;20524;-70
2022/11/16 05:26:19;;;;;;;54.08;29.35;;;;;;;2.13;82.44;94390.75;5091918;28;20128;-69
2022/11/16 05:28:44;;;;;;;63.22;32.78;;;;;;;2.07;83.05;94374.91;5090508;28;20115;-69
2022/11/16 05:31:10;;;;;;;60.53;32.42;;;;;;;2.20;82.87;94366.44;5091896;28;20394;-69
2022/11/16 05:33:35;;;;;;;59.88;30.10;;;;;;;2.40;81.89;94379.84;5078977;28;20501;-69
2022/11/16 05:36:00;;;;;;;51.88;28.70;;;;;;;2.33;81.99;94371.66;5107109;28;20051;-70
2022/11/16 05:38:26;;;;;;;57.25;31.02;;;;;;;2.38;82.26;94372.22;5096962;28;20089;-70
2022/11/16 05:40:51;;;;;;;69.97;38.80;;;;;;;2.28;82.74;94380.53;5103709;28;20038;-69
2022/11/16 05:43:17;;;;;;;70.40;41.38;;;;;;;2.10;82.67;94370.41;5070440;28;20039;-70
2022/11/16 05:45:42;;;;;;;56.28;31.38;;;;;;;2.27;82.70;94378.91;5108866;28;20027;-70
2022/11/16 05:48:08;;;;;;;58.90;31.63;;;;;;;2.37;81.87;94383.41;5102055;28;20478;-69
2022/11/16 05:50:33;;;;;;;61.30;33.28;;;;;;;2.45;82.54;94386.34;5093217;28;20547;-69
2022/11/16 05:52:58;;;;;;;111.65;48.97;;;;;;;2.32;82.84;94377.72;5111541;28;20031;-70
2022/11/16 05:55:24;;;;;;;79.80;40.90;;;;;;;2.43;82.22;94388.19;5086199;28;20161;-69
2022/11/16 05:57:49;;;;;;;73.63;38.20;;;;;;;2.41;82.66;94394.31;5101366;28;20028;-69
2022/11/16 06:00:15;;;;;;;63.75;34.78;;;;;;;2.60;81.85;94394.06;5102578;28;20024;-70
2022/11/16 06:02:41;;;;;;;70.55;36.35;;;;;;;2.66;81.99;94391.97;5078510;28;20062;-69
2022/11/16 06:05:07;;;;;;;63.65;35.95;;;;;;;2.73;82.10;94383.91;5105751;27;20028;-70
2022/11/16 06:07:33;;;;;;;62.08;33.88;;;;;;;2.88;81.55;94383.00;5109477;28;20100;-69
2022/11/16 06:09:58;;;;;;;53.78;32.53;;;;;;;2.95;81.55;94384.28;5107400;27;20118;-70
2022/11/16 06:12:23;;;;;;;54.28;31.45;;;;;;;3.14;80.98;94389.13;5107028;28;20118;-69
2022/11/16 06:14:49;;;;;;;46.70;28.08;;;;;;;3.26;79.93;94387.56;5111579;27;20027;-69
2022/11/16 06:17:14;;;;;;;45.15;27.10;;;;;;;3.32;80.00;94397.47;5105468;28;20039;-70
2022/11/16 06:19:40;;;;;;;47.28;27.40;;;;;;;3.27;80.46;94392.59;5105852;28;20065;-69
2022/11/16 06:22:05;;;;;;;46.60;27.77;;;;;;;3.36;80.58;94394.59;5088988;28;20066;-69
2022/11/16 06:24:31;;;;;;;44.65;27.27;;;;;;;3.44;80.59;94391.56;5105621;28;20027;-69
2022/11/16 06:26:56;;;;;;;45.90;27.73;;;;;;;3.51;80.25;94392.84;5099210;28;20470;-70
2022/11/16 06:29:22;;;;;;;42.90;28.40;;;;;;;3.53;80.20;94385.03;5106679;28;20028;-69
2022/11/16 06:31:47;;;;;;;46.10;28.55;;;;;;;3.62;79.88;94381.91;5108393;28;20100;-69
2022/11/16 06:34:13;;;;;;;49.28;28.63;;;;;;;3.60;79.97;94388.88;5109768;27;20469;-70
2022/11/16 06:36:38;;;;;;;47.15;28.25;;;;;;;3.73;79.33;94391.50;5108329;27;20565;-69
2022/11/16 06:39:04;;;;;;;43.33;28.10;;;;;;;3.80;79.31;94392.78;5107990;28;20039;-70
2022/11/16 06:41:30;;;;;;;44.00;26.77;;;;;;;3.87;78.54;94388.06;5090690;28;20475;-70
2022/11/16 06:43:56;;;;;;;42.28;27.00;;;;;;;3.89;78.30;94376.78;5107209;28;20035;-70
2022/11/16 06:46:23;;;;;;;44.17;27.38;;;;;;;4.00;77.72;94379.47;5071249;28;20069;-70
2022/11/16 06:48:48;;;;;;;49.10;29.23;;;;;;;3.99;77.09;94375.28;5107461;28;20032;-70
2022/11/16 06:51:14;;;;;;;51.88;32.15;;;;;;;3.96;77.29;94367.75;5107457;28;20054;-70
2022/11/16 06:53:39;;;;;;;48.63;30.38;;;;;;;3.90;78.33;94364.75;5073101;28;20097;-70
2022/11/16 06:56:05;;;;;;;46.38;29.35;;;;;;;3.96;78.53;94380.59;5088904;28;20587;-71
2022/11/16 06:58:31;;;;;;;50.83;31.00;;;;;;;3.88;78.58;94362.28;5102555;28;20465;-70
2022/11/16 07:00:57;;;;;;;55.60;32.97;;;;;;;3.76;78.47;94356.19;5072756;28;20040;-71
2022/11/16 07:03:22;;;;;;;62.38;34.33;;;;;;;3.90;78.61;94377.59;5088036;28;20514;-71
2022/11/16 07:05:48;;;;;;;66.18;35.72;;;;;;;4.02;78.46;94374.25;5071962;28;20523;-72
2022/11/16 07:08:13;;;;;;;76.55;40.17;;;;;;;4.14;78.40;94376.03;5089570;28;20032;-72
2022/11/16 07:10:39;;;;;;;73.78;39.72;;;;;;;3.99;78.87;94364.16;5090208;28;20040;-72
2022/11/16 07:13:04;;;;;;;60.63;32.35;;;;;;;4.10;78.77;94378.91;5073588;28;20040;-72
2022/11/16 07:15:30;;;;;;;59.05;33.58;;;;;;;4.17;78.43;94369.88;5090652;28;20032;-72
2022/11/16 07:17:56;;;;;;;62.88;36.70;;;;;;;4.12;78.67;94366.75;5091663;28;20131;-72
2022/11/16 07:20:21;;;;;;;64.40;35.08;;;;;;;4.15;78.17;94371.69;5088345;28;20505;-72
2022/11/16 07:22:47;;;;;;;62.55;35.65;;;;;;;4.16;78.50;94358.75;5088298;28;20509;-72
2022/11/16 07:25:12;;;;;;;60.05;35.05;;;;;;;4.18;78.76;94372.34;5088496;28;20081;-72
2022/11/16 07:27:38;;;;;;;58.92;33.00;;;;;;;4.29;78.72;94373.38;5088733;28;20043;-72
2022/11/16 07:30:04;;;;;;;56.22;34.15;;;;;;;4.39;78.13;94348.72;5088624;28;20038;-72
2022/11/16 07:32:29;;;;;;;68.25;39.28;;;;;;;4.48;77.63;94356.66;5071594;28;20048;-72
2022/11/16 07:34:55;;;;;;;64.82;36.88;;;;;;;4.54;77.89;94368.28;5090860;28;20111;-72
2022/11/16 07:37:20;;;;;;;70.22;40.25;;;;;;;4.62;77.49;94365.19;5089888;28;20061;-72
2022/11/16 07:39:46;;;;;;;64.57;40.33;;;;;;;4.78;76.84;94360.66;5091391;28;20082;-72
2022/11/16 07:42:11;;;;;;;76.38;43.97;;;;;;;4.78;77.26;94358.09;5090454;28;20036;-72
2022/11/16 07:44:37;;;;;;;90.97;48.75;;;;;;;4.77;77.22;94353.88;5091322;28;20028;-72
2022/11/16 07:47:03;;;;;;;88.55;49.88;;;;;;;4.82;77.34;94356.97;5085504;28;20420;-72
2022/11/16 07:49:29;;;;;;;103.13;52.75;;;;;;;4.80;77.37;94351.09;5126513;27;20035;-72
2022/11/16 07:51:54;;;;;;;88.15;49.38;;;;;;;4.84;77.43;94355.09;5116154;27;20085;-72
2022/11/16 07:54:20;;;;;;;87.63;50.10;;;;;;;4.92;77.47;94355.41;5091116;28;20020;-72
2022/11/16 07:56:45;;;;;;;90.72;49.83;;;;;;;5.04;76.70;94346.06;5092565;28;20032;-72
2022/11/16 07:59:11;;;;;;;89.72;47.72;;;;;;;5.10;76.95;94353.34;5103226;28;20504;-72
2022/11/16 08:01:36;;;;;;;80.10;43.78;;;;;;;5.15;77.32;94345.28;5092002;28;20047;-72
2022/11/16 08:04:02;;;;;;;76.70;41.25;;;;;;;5.19;77.00;94345.91;5090767;28;20090;-71
2022/11/16 08:06:31;;;;;;;61.80;38.85;;;;;;;5.24;76.66;94344.69;5103359;28;20141;-73
2022/11/16 08:08:56;;;;;;;63.90;37.28;;;;;;;5.41;76.25;94342.69;5093606;28;20028;-73
2022/11/16 08:11:22;;;;;;;62.22;37.08;;;;;;;5.32;76.33;94333.81;5109274;28;20422;-73
2022/11/16 08:13:48;;;;;;;76.90;42.65;;;;;;;5.09;77.52;94340.56;5088240;28;20577;-72
2022/11/16 08:16:17;;;;;;;78.68;43.17;;;;;;;5.16;77.57;94331.50;5072921;28;20031;-72
2022/11/16 08:18:43;;;;;;;76.43;41.85;;;;;;;5.28;77.33;94325.50;5073296;28;20102;-73
2022/11/16 08:21:10;;;;;;;75.95;41.08;;;;;;;5.43;77.80;94335.66;5055807;28;20078;-72
2022/11/16 08:23:36;;;;;;;76.20;41.42;;;;;;;5.60;77.15;94327.56;5072767;28;20111;-73
2022/11/16 08:26:06;;;;;;;83.65;45.60;;;;;;;5.69;77.31;94323.53;5089716;28;20128;-73
2022/11/16 08:28:32;;;;;;;80.93;43.43;;;;;;;5.74;77.02;94318.84;5089591;28;20482;-72
2022/11/16 08:30:58;;;;;;;74.90;43.60;;;;;;;5.80;77.04;94321.81;5072978;28;20024;-73
2022/11/16 08:33:24;;;;;;;75.70;43.42;;;;;;;5.82;76.95;94309.63;5090603;28;20028;-73
2022/11/16 08:35:50;;;;;;;77.40;43.90;;;;;;;5.91;76.85;94307.34;5073048;28;20040;-73
2022/11/16 08:38:17;;;;;;;75.90;42.65;;;;;;;6.00;76.68;94304.94;5089514;28;20117;-72
2022/11/16 08:40:43;;;;;;;77.38;40.88;;;;;;;6.03;76.68;94316.78;5089485;28;20077;-73
2022/11/16 08:43:09;;;;;;;73.43;40.03;;;;;;;6.07;76.95;94307.06;5072714;28;20036;-73
2022/11/16 08:45:35;;;;;;;79.78;44.25;;;;;;;6.02;76.76;94297.91;5090700;28;20032;-72
2022/11/16 08:48:01;;;;;;;66.30;35.92;;;;;;;6.10;76.91;94310.25;5072644;28;20459;-72
2022/11/16 08:50:26;;;;;;;63.65;33.42;;;;;;;6.15;76.59;94308.13;5076494;28;20032;-72
2022/11/16 08:52:52;;;;;;;55.92;31.23;;;;;;;6.23;76.17;94307.56;5094504;28;20040;-73
2022/11/16 08:55:17;;;;;;;55.38;31.50;;;;;;;6.41;75.35;94308.00;5093420;28;20050;-72
2022/11/16 08:57:43;;;;;;;50.72;31.25;;;;;;;6.52;74.94;94310.59;5093398;28;20430;-73
2022/11/16 09:00:10;;;;;;;51.65;31.13;;;;;;;6.33;75.26;94281.94;5094432;28;20035;-72
2022/11/16 09:02:35;;;;;;;53.97;31.58;;;;;;;6.50;75.59;94296.97;5076526;28;20036;-72
2022/11/16 09:05:01;;;;;;;62.40;32.03;;;;;;;6.51;75.51;94308.94;5076191;28;20028;-73
2022/11/16 09:07:26;;;;;;;50.33;30.15;;;;;;;6.61;75.62;94304.72;5093353;28;20040;-73
2022/11/16 09:09:52;;;;;;;60.00;34.50;;;;;;;6.69;75.61;94302.38;5092999;28;20545;-72
2022/11/16 09:12:17;;;;;;;58.50;31.58;;;;;;;6.75;75.57;94298.53;5075844;28;20521;-73
2022/11/16 09:14:43;;;;;;;57.75;30.77;;;;;;;6.84;76.08;94299.59;5094147;28;20024;-73
2022/11/16 09:17:08;;;;;;;57.30;32.60;;;;;;;6.77;76.37;94278.59;5093171;28;20114;-73
2022/11/16 09:19:34;;;;;;;54.42;31.35;;;;;;;6.97;76.11;94287.38;5092914;28;20028;-73
2022/11/16 09:21:59;;;;;;;63.63;31.85;;;;;;;7.09;76.04;94289.00;5059479;28;20024;-73
2022/11/16 09:24:24;;;;;;;55.47;32.97;;;;;;;7.18;75.80;94284.06;5092829;28;20410;-73
2022/11/16 09:26:50;;;;;;;56.30;31.95;;;;;;;7.22;76.21;94277.75;5094393;28;20028;-73
2022/11/16 09:29:15;;;;;;;51.03;29.45;;;;;;;7.32;76.28;94269.13;5092654;28;20024;-73
2022/11/16 09:31:41;;;;;;;54.63;30.45;;;;;;;7.38;76.02;94252.31;5092807;28;20035;-73
2022/11/16 09:34:07;;;;;;;45.20;26.58;;;;;;;7.57;75.35;94251.69;5092939;28;20126;-73
2022/11/16 09:36:32;;;;;;;46.50;25.13;;;;;;;7.75;75.56;94241.66;5094104;28;20038;-73
2022/11/16 09:38:57;;;;;;;43.90;25.98;;;;;;;7.93;75.30;94237.53;5093733;28;20099;-73
2022/11/16 09:41:35;;;;;;;38.92;22.58;;;;;;;7.98;74.97;94225.06;5075689;28;20077;-73
2022/11/16 09:44:06;;;;;;;31.02;19.33;;;;;;;8.10;74.59;94233.56;5093638;28;20078;-73
2022/11/16 09:46:55;;;;;;;27.60;17.35;;;;;;;8.28;72.98;94226.91;5093548;28;20484;-73
2022/11/16 09:49:24;;;;;;;29.13;18.23;;;;;;;8.22;73.50;94214.47;5084356;28;20038;-73
2022/11/16 09:51:54;;;;;;;27.83;17.75;;;;;;;8.33;72.97;94211.00;5092382;28;20047;-72
2022/11/16 09:54:22;;;;;;;28.33;17.98;;;;;;;8.41;72.60;94211.22;5092195;28;20115;-73
2022/11/16 09:56:49;;;;;;;29.95;17.50;;;;;;;8.43;72.18;94209.28;5075587;28;20093;-73
2022/11/16 09:59:28;;;;;;;32.92;19.75;;;;;;;8.47;72.54;94194.34;5058702;28;20126;-73
2022/11/16 10:01:58;;;;;;;31.65;20.83;;;;;;;8.67;71.73;94201.22;5075243;28;20020;-73
2022/11/16 10:04:35;;;;;;;39.45;23.65;;;;;;;8.68;71.12;94191.69;5075162;28;20052;-73
2022/11/16 10:07:13;;;;;;;37.22;24.10;;;;;;;8.66;71.67;94189.25;5092304;28;20030;-73
2022/11/16 10:09:39;;;;;;;35.40;21.98;;;;;;;8.59;71.58;94189.91;5092226;28;20067;-73
2022/11/16 10:12:16;;;;;;;33.53;20.38;;;;;;;8.85;70.15;94183.28;5074769;28;20113;-73
2022/11/16 10:15:00;;;;;;;38.47;21.33;;;;;;;8.67;71.11;94170.16;5091913;28;20417;-73
2022/11/16 10:18:02;;;;;;;34.55;23.35;;;;;;;8.80;71.29;94180.28;5091771;28;20028;-73
2022/11/16 10:21:02;;;;;;;32.15;20.02;;;;;;;8.65;71.15;94166.88;5093054;28;20032;-73
2022/11/16 10:23:49;;;;;;;34.25;19.80;;;;;;;8.78;71.22;94161.47;5092895;28;20043;-73
2022/11/16 10:26:29;;;;;;;30.13;18.27;;;;;;;8.59;71.56;94159.63;5091904;28;20024;-73
2022/11/16 10:28:58;;;;;;;29.47;18.57;;;;;;;8.51;71.75;94149.13;5092968;28;20304;-73
2022/11/16 10:31:30;;;;;;;28.48;18.55;;;;;;;8.75;71.22;94146.22;5091701;28;20059;-73
2022/11/16 10:33:55;;;;;;;31.15;19.65;;;;;;;8.78;70.83;94134.78;5092647;28;20039;-73
2022/11/16 10:36:25;;;;;;;27.92;18.65;;;;;;;8.79;70.86;94142.38;5091641;28;20036;-73
2022/11/16 10:38:51;;;;;;;29.98;17.80;;;;;;;8.80;70.84;94120.72;5075350;28;20401;-73
2022/11/16 10:41:21;;;;;;;31.90;20.42;;;;;;;8.84;71.05;94129.88;5057776;28;20020;-73
2022/11/16 10:43:46;;;;;;;29.23;18.60;;;;;;;8.96;70.35;94138.34;5091303;28;20395;-73
2022/11/16 10:46:32;;;;;;;33.47;19.75;;;;;;;8.69;71.23;94120.81;5057744;28;20024;-73
2022/11/16 10:49:21;;;;;;;28.85;19.17;;;;;;;8.75;70.94;94122.06;5091271;28;20405;-73
2022/11/16 10:51:47;;;;;;;29.17;17.45;;;;;;;8.65;71.39;94122.84;5076258;28;20467;-73
2022/11/16 10:54:16;;;;;;;36.10;21.13;;;;;;;8.92;70.92;94114.47;5091363;28;20028;-73
2022/11/16 10:56:47;;;;;;;37.88;23.90;;;;;;;9.03;70.88;94105.78;5074312;28;20477;-73
2022/11/16 10:59:13;;;;;;;38.75;23.13;;;;;;;9.09;70.98;94125.94;5091062;28;20032;-73
2022/11/16 11:01:43;;;;;;;34.22;19.70;;;;;;;9.16;70.20;94116.69;5091046;28;20585;-73
2022/11/16 11:04:37;;;;;;;32.28;20.35;;;;;;;9.30;70.39;94115.44;5074772;28;20035;-72
2022/11/16 11:07:45;;;;;;;30.23;19.20;;;;;;;9.43;69.93;94106.59;5090938;28;20036;-73
2022/11/16 11:10:40;;;;;;;29.50;19.00;;;;;;;9.50;69.64;94102.47;5015865;28;20033;-73
2022/11/16 11:13:11;;;;;;;28.55;18.80;;;;;;;9.54;69.36;94091.72;5035793;28;20106;-73
2022/11/16 11:15:40;;;;;;;27.80;17.30;;;;;;;9.48;68.98;94088.88;5080087;28;20044;-73
2022/11/16 11:18:14;;;;;;;29.40;18.23;;;;;;;9.34;69.75;94090.91;5074277;28;20067;-73
2022/11/16 11:20:41;;;;;;;28.83;17.48;;;;;;;9.30;69.68;94070.56;5091804;28;20032;-73
2022/11/16 11:23:37;;;;;;;27.75;17.92;;;;;;;9.54;69.37;94072.75;5090599;28;20032;-73
2022/11/16 11:26:02;;;;;;;27.42;17.60;;;;;;;9.64;68.55;94065.78;5068486;28;20142;-73
2022/11/16 11:28:30;;;;;;;34.03;19.27;;;;;;;9.77;68.35;94066.28;5073472;28;20486;-73
2022/11/16 11:31:00;;;;;;;38.25;21.63;;;;;;;9.80;68.40;94070.38;5091817;28;20040;-73
2022/11/16 11:33:27;;;;;;;32.60;20.02;;;;;;;9.93;67.33;94057.09;5091511;28;20517;-73
2022/11/16 11:36:09;;;;;;;29.45;18.83;;;;;;;9.81;67.89;94052.09;5090380;28;20040;-73
2022/11/16 11:38:35;;;;;;;34.35;20.63;;;;;;;9.79;67.77;94037.63;5075048;28;20028;-73
2022/11/16 11:41:03;;;;;;;28.73;18.85;;;;;;;9.84;67.87;94050.97;5073441;28;20032;-73
2022/11/16 11:43:29;;;;;;;33.67;20.52;;;;;;;9.76;67.92;94030.94;5057166;28;20497;-73
2022/11/16 11:46:06;;;;;;;31.30;20.52;;;;;;;9.85;68.32;94042.22;5090275;28;20036;-73
2022/11/16 11:48:53;;;;;;;32.28;19.88;;;;;;;9.92;68.51;94043.31;5057058;28;20161;-73
2022/11/16 11:51:24;;;;;;;32.15;20.60;;;;;;;9.99;68.46;94043.56;5073724;28;20032;-73
2022/11/16 11:53:56;;;;;;;34.13;21.38;;;;;;;10.03;68.06;94018.97;5089876;28;20089;-73
2022/11/16 11:56:22;;;;;;;33.17;20.55;;;;;;;10.09;67.65;94018.41;5073242;28;20064;-73
2022/11/16 11:58:48;;;;;;;31.77;18.85;;;;;;;10.11;67.76;94026.03;5089925;28;20032;-73
2022/11/16 12:01:23;;;;;;;28.63;19.50;;;;;;;10.20;67.34;94015.59;5073358;28;20085;-73
2022/11/16 12:04:06;;;;;;;30.85;20.45;;;;;;;10.21;67.77;94012.03;5091082;28;20075;-73
2022/11/16 12:06:47;;;;;;;29.30;19.15;;;;;;;10.13;67.54;94013.72;5089839;28;20039;-73
2022/11/16 12:09:26;;;;;;;27.83;18.75;;;;;;;10.15;67.68;94012.63;5073871;28;20089;-73
2022/11/16 12:12:26;;;;;;;30.33;18.50;;;;;;;10.25;67.36;94000.44;5090739;28;20128;-73
2022/11/16 12:14:57;;;;;;;34.97;20.10;;;;;;;10.28;67.28;94007.16;5075335;28;20119;-73
2022/11/16 12:17:37;;;;;;;32.88;19.48;;;;;;;10.32;67.17;94005.06;5091511;28;20466;-73